sensor_id;sensor_type;location;lat;lon;timestamp;P1;durP1;ratioP1;P2;durP2;ratioP2
16159;SDS011;8185;57.818;15.224;2024-02-23T00:00:31;14.80;;;10.40;;
16159;SDS011;8185;57.818;15.224;2024-02-23T00:02:58;14.40;;;10.65;;
16159;SDS011;8185;57.818;15.224;2024-02-23T00:05:25;14.07;;;10.35;;
16159;SDS011;8185;57.818;15.224;2024-02-23T00:07:53;14.50;;;10.35;;
16159;SDS011;8185;57.818;15.224;2024-02-23T00:10:20;15.20;;;10.55;;
16159;SDS011;8185;57.818;15.224;2024-02-23T00:12:49;16.10;;;10.10;;
16159;SDS011;8185;57.818;15.224;2024-02-23T00:15:16;15.90;;;10.45;;
16159;SDS011;8185;57.818;15.224;2024-02-23T00:17:44;13.55;;;10.02;;
16159;SDS011;8185;57.818;15.224;2024-02-23T00:20:11;15.13;;;10.33;;
16159;SDS011;8185;57.818;15.224;2024-02-23T00:22:40;14.00;;;9.82;;
16159;SDS011;8185;57.818;15.224;2024-02-23T00:25:07;15.68;;;9.75;;
16159;SDS011;8185;57.818;15.224;2024-02-23T00:27:35;14.85;;;10.05;;
16159;SDS011;8185;57.818;15.224;2024-02-23T00:30:04;12.85;;;9.30;;
16159;SDS011;8185;57.818;15.224;2024-02-23T00:32:33;16.27;;;10.00;;
16159;SDS011;8185;57.818;15.224;2024-02-23T00:35:00;14.20;;;9.55;;
16159;SDS011;8185;57.818;15.224;2024-02-23T00:37:27;17.85;;;10.77;;
16159;SDS011;8185;57.818;15.224;2024-02-23T00:40:00;17.50;;;11.10;;
16159;SDS011;8185;57.818;15.224;2024-02-23T00:42:29;16.00;;;9.98;;
16159;SDS011;8185;57.818;15.224;2024-02-23T00:44:56;16.23;;;10.00;;
16159;SDS011;8185;57.818;15.224;2024-02-23T00:47:26;16.45;;;9.90;;
16159;SDS011;8185;57.818;15.224;2024-02-23T00:49:53;14.93;;;9.85;;
16159;SDS011;8185;57.818;15.224;2024-02-23T00:52:21;15.20;;;9.30;;
16159;SDS011;8185;57.818;15.224;2024-02-23T00:54:48;17.30;;;9.63;;
16159;SDS011;8185;57.818;15.224;2024-02-23T00:57:15;16.05;;;10.30;;
16159;SDS011;8185;57.818;15.224;2024-02-23T00:59:47;16.92;;;9.75;;
16159;SDS011;8185;57.818;15.224;2024-02-23T01:02:14;15.95;;;9.73;;
16159;SDS011;8185;57.818;15.224;2024-02-23T01:04:43;15.88;;;9.48;;
16159;SDS011;8185;57.818;15.224;2024-02-23T01:07:10;15.25;;;8.93;;
16159;SDS011;8185;57.818;15.224;2024-02-23T01:09:38;15.48;;;9.55;;
16159;SDS011;8185;57.818;15.224;2024-02-23T01:12:05;11.80;;;8.57;;
16159;SDS011;8185;57.818;15.224;2024-02-23T01:14:33;13.18;;;8.70;;
16159;SDS011;8185;57.818;15.224;2024-02-23T01:17:00;12.45;;;8.80;;
16159;SDS011;8185;57.818;15.224;2024-02-23T01:19:27;9.67;;;7.73;;
16159;SDS011;8185;57.818;15.224;2024-02-23T01:21:56;9.82;;;7.53;;
16159;SDS011;8185;57.818;15.224;2024-02-23T01:24:25;11.63;;;8.00;;
16159;SDS011;8185;57.818;15.224;2024-02-23T01:26:54;10.75;;;7.50;;
16159;SDS011;8185;57.818;15.224;2024-02-23T01:29:23;9.27;;;7.13;;
16159;SDS011;8185;57.818;15.224;2024-02-23T01:31:51;10.07;;;7.30;;
16159;SDS011;8185;57.818;15.224;2024-02-23T01:34:19;8.57;;;6.95;;
16159;SDS011;8185;57.818;15.224;2024-02-23T01:36:47;8.40;;;6.78;;
16159;SDS011;8185;57.818;15.224;2024-02-23T01:39:15;9.18;;;7.10;;
16159;SDS011;8185;57.818;15.224;2024-02-23T01:41:43;9.63;;;7.13;;
16159;SDS011;8185;57.818;15.224;2024-02-23T01:44:10;8.23;;;6.80;;
16159;SDS011;8185;57.818;15.224;2024-02-23T01:46:38;9.13;;;6.43;;
16159;SDS011;8185;57.818;15.224;2024-02-23T01:49:05;8.65;;;6.60;;
16159;SDS011;8185;57.818;15.224;2024-02-23T01:51:34;7.80;;;6.20;;
16159;SDS011;8185;57.818;15.224;2024-02-23T01:54:02;7.30;;;6.13;;
16159;SDS011;8185;57.818;15.224;2024-02-23T01:56:31;7.68;;;5.97;;
16159;SDS011;8185;57.818;15.224;2024-02-23T01:59:01;7.20;;;5.90;;
16159;SDS011;8185;57.818;15.224;2024-02-23T02:01:30;7.00;;;5.65;;
16159;SDS011;8185;57.818;15.224;2024-02-23T02:03:57;6.65;;;5.70;;
16159;SDS011;8185;57.818;15.224;2024-02-23T02:06:25;8.55;;;5.95;;
16159;SDS011;8185;57.818;15.224;2024-02-23T02:08:53;7.95;;;5.97;;
16159;SDS011;8185;57.818;15.224;2024-02-23T02:11:20;6.80;;;5.60;;
16159;SDS011;8185;57.818;15.224;2024-02-23T02:13:49;7.28;;;6.10;;
16159;SDS011;8185;57.818;15.224;2024-02-23T02:16:16;7.35;;;5.80;;
16159;SDS011;8185;57.818;15.224;2024-02-23T02:18:44;6.83;;;5.83;;
16159;SDS011;8185;57.818;15.224;2024-02-23T02:21:11;8.35;;;6.22;;
16159;SDS011;8185;57.818;15.224;2024-02-23T02:23:39;7.75;;;6.53;;
16159;SDS011;8185;57.818;15.224;2024-02-23T02:26:06;7.38;;;6.38;;
16159;SDS011;8185;57.818;15.224;2024-02-23T02:28:33;8.83;;;6.77;;
16159;SDS011;8185;57.818;15.224;2024-02-23T02:31:03;6.97;;;6.05;;
16159;SDS011;8185;57.818;15.224;2024-02-23T02:33:30;7.35;;;6.38;;
16159;SDS011;8185;57.818;15.224;2024-02-23T02:35:57;7.88;;;6.03;;
16159;SDS011;8185;57.818;15.224;2024-02-23T02:38:25;8.25;;;6.40;;
16159;SDS011;8185;57.818;15.224;2024-02-23T02:40:52;8.17;;;5.93;;
16159;SDS011;8185;57.818;15.224;2024-02-23T02:43:20;7.65;;;5.57;;
16159;SDS011;8185;57.818;15.224;2024-02-23T02:45:47;7.90;;;6.20;;
16159;SDS011;8185;57.818;15.224;2024-02-23T02:48:16;7.78;;;6.53;;
16159;SDS011;8185;57.818;15.224;2024-02-23T02:50:43;8.63;;;6.45;;
16159;SDS011;8185;57.818;15.224;2024-02-23T02:53:11;7.72;;;6.20;;
16159;SDS011;8185;57.818;15.224;2024-02-23T02:55:41;8.45;;;6.90;;
16159;SDS011;8185;57.818;15.224;2024-02-23T02:58:09;8.00;;;5.95;;
16159;SDS011;8185;57.818;15.224;2024-02-23T03:00:37;7.68;;;6.47;;
16159;SDS011;8185;57.818;15.224;2024-02-23T03:03:05;8.40;;;6.07;;
16159;SDS011;8185;57.818;15.224;2024-02-23T03:05:34;7.03;;;5.93;;
16159;SDS011;8185;57.818;15.224;2024-02-23T03:08:01;7.35;;;5.90;;
16159;SDS011;8185;57.818;15.224;2024-02-23T03:10:29;6.57;;;5.73;;
16159;SDS011;8185;57.818;15.224;2024-02-23T03:12:56;6.30;;;5.40;;
16159;SDS011;8185;57.818;15.224;2024-02-23T03:15:23;6.60;;;5.35;;
16159;SDS011;8185;57.818;15.224;2024-02-23T03:17:51;5.55;;;5.00;;
16159;SDS011;8185;57.818;15.224;2024-02-23T03:20:19;6.70;;;4.90;;
16159;SDS011;8185;57.818;15.224;2024-02-23T03:22:48;6.90;;;5.10;;
16159;SDS011;8185;57.818;15.224;2024-02-23T03:25:16;6.85;;;5.30;;
16159;SDS011;8185;57.818;15.224;2024-02-23T03:27:43;5.60;;;5.05;;
16159;SDS011;8185;57.818;15.224;2024-02-23T03:30:10;5.63;;;5.10;;
16159;SDS011;8185;57.818;15.224;2024-02-23T03:32:38;6.53;;;5.10;;
16159;SDS011;8185;57.818;15.224;2024-02-23T03:35:06;5.47;;;4.97;;
16159;SDS011;8185;57.818;15.224;2024-02-23T03:37:34;5.63;;;4.88;;
16159;SDS011;8185;57.818;15.224;2024-02-23T03:40:03;5.32;;;4.82;;
16159;SDS011;8185;57.818;15.224;2024-02-23T03:42:31;4.47;;;4.07;;
16159;SDS011;8185;57.818;15.224;2024-02-23T03:44:59;4.30;;;3.90;;
16159;SDS011;8185;57.818;15.224;2024-02-23T03:47:26;4.05;;;3.65;;
16159;SDS011;8185;57.818;15.224;2024-02-23T03:49:53;3.60;;;3.30;;
16159;SDS011;8185;57.818;15.224;2024-02-23T03:52:21;3.85;;;3.20;;
16159;SDS011;8185;57.818;15.224;2024-02-23T03:54:48;3.00;;;2.70;;
16159;SDS011;8185;57.818;15.224;2024-02-23T03:57:18;2.60;;;2.40;;
16159;SDS011;8185;57.818;15.224;2024-02-23T03:59:51;2.38;;;2.17;;
16159;SDS011;8185;57.818;15.224;2024-02-23T04:02:19;2.10;;;1.90;;
16159;SDS011;8185;57.818;15.224;2024-02-23T04:04:47;2.10;;;1.70;;
16159;SDS011;8185;57.818;15.224;2024-02-23T04:07:15;1.80;;;1.70;;
16159;SDS011;8185;57.818;15.224;2024-02-23T04:09:42;1.65;;;1.55;;
16159;SDS011;8185;57.818;15.224;2024-02-23T04:12:10;1.70;;;1.60;;
16159;SDS011;8185;57.818;15.224;2024-02-23T04:14:39;1.60;;;1.50;;
16159;SDS011;8185;57.818;15.224;2024-02-23T04:17:06;1.50;;;1.40;;
16159;SDS011;8185;57.818;15.224;2024-02-23T04:19:33;1.65;;;1.55;;
16159;SDS011;8185;57.818;15.224;2024-02-23T04:22:01;1.58;;;1.48;;
16159;SDS011;8185;57.818;15.224;2024-02-23T04:24:28;1.40;;;1.30;;
16159;SDS011;8185;57.818;15.224;2024-02-23T04:26:55;1.67;;;1.40;;
16159;SDS011;8185;57.818;15.224;2024-02-23T04:29:23;1.40;;;1.30;;
16159;SDS011;8185;57.818;15.224;2024-02-23T04:31:51;1.35;;;1.25;;
16159;SDS011;8185;57.818;15.224;2024-02-23T04:34:19;1.50;;;1.40;;
16159;SDS011;8185;57.818;15.224;2024-02-23T04:36:46;1.20;;;1.10;;
16159;SDS011;8185;57.818;15.224;2024-02-23T04:39:13;1.42;;;1.33;;
16159;SDS011;8185;57.818;15.224;2024-02-23T04:41:41;1.00;;;0.90;;
16159;SDS011;8185;57.818;15.224;2024-02-23T04:44:08;0.95;;;0.95;;
16159;SDS011;8185;57.818;15.224;2024-02-23T04:46:36;1.02;;;0.93;;
16159;SDS011;8185;57.818;15.224;2024-02-23T04:49:04;0.90;;;0.90;;
16159;SDS011;8185;57.818;15.224;2024-02-23T04:51:32;1.20;;;0.90;;
16159;SDS011;8185;57.818;15.224;2024-02-23T04:53:59;1.10;;;0.95;;
16159;SDS011;8185;57.818;15.224;2024-02-23T04:56:26;1.10;;;0.90;;
16159;SDS011;8185;57.818;15.224;2024-02-23T04:58:53;0.90;;;0.75;;
16159;SDS011;8185;57.818;15.224;2024-02-23T05:01:21;0.93;;;0.80;;
16159;SDS011;8185;57.818;15.224;2024-02-23T05:03:48;0.90;;;0.80;;
16159;SDS011;8185;57.818;15.224;2024-02-23T05:06:17;0.77;;;0.60;;
16159;SDS011;8185;57.818;15.224;2024-02-23T05:08:44;0.60;;;0.60;;
16159;SDS011;8185;57.818;15.224;2024-02-23T05:11:11;0.52;;;0.52;;
16159;SDS011;8185;57.818;15.224;2024-02-23T05:13:41;0.70;;;0.60;;
16159;SDS011;8185;57.818;15.224;2024-02-23T05:16:08;0.50;;;0.47;;
16159;SDS011;8185;57.818;15.224;2024-02-23T05:18:35;1.15;;;0.57;;
16159;SDS011;8185;57.818;15.224;2024-02-23T05:21:03;0.50;;;0.50;;
16159;SDS011;8185;57.818;15.224;2024-02-23T05:23:32;1.02;;;0.50;;
16159;SDS011;8185;57.818;15.224;2024-02-23T05:25:59;1.10;;;0.50;;
16159;SDS011;8185;57.818;15.224;2024-02-23T05:28:26;0.50;;;0.40;;
16159;SDS011;8185;57.818;15.224;2024-02-23T05:30:54;0.40;;;0.40;;
16159;SDS011;8185;57.818;15.224;2024-02-23T05:33:21;0.40;;;0.40;;
16159;SDS011;8185;57.818;15.224;2024-02-23T05:35:50;0.63;;;0.50;;
16159;SDS011;8185;57.818;15.224;2024-02-23T05:38:17;0.50;;;0.40;;
16159;SDS011;8185;57.818;15.224;2024-02-23T05:40:46;0.90;;;0.50;;
16159;SDS011;8185;57.818;15.224;2024-02-23T05:43:14;0.70;;;0.70;;
16159;SDS011;8185;57.818;15.224;2024-02-23T05:45:42;1.05;;;0.95;;
16159;SDS011;8185;57.818;15.224;2024-02-23T05:48:10;0.80;;;0.80;;
16159;SDS011;8185;57.818;15.224;2024-02-23T05:50:38;0.93;;;0.85;;
16159;SDS011;8185;57.818;15.224;2024-02-23T05:53:05;1.38;;;1.10;;
16159;SDS011;8185;57.818;15.224;2024-02-23T05:55:32;1.17;;;1.08;;
16159;SDS011;8185;57.818;15.224;2024-02-23T05:58:01;1.00;;;1.00;;
16159;SDS011;8185;57.818;15.224;2024-02-23T06:00:30;1.63;;;1.20;;
16159;SDS011;8185;57.818;15.224;2024-02-23T06:02:58;1.73;;;1.30;;
16159;SDS011;8185;57.818;15.224;2024-02-23T06:05:25;2.17;;;1.20;;
16159;SDS011;8185;57.818;15.224;2024-02-23T06:07:52;1.80;;;1.33;;
16159;SDS011;8185;57.818;15.224;2024-02-23T06:10:20;1.40;;;1.10;;
16159;SDS011;8185;57.818;15.224;2024-02-23T06:12:47;1.90;;;1.27;;
16159;SDS011;8185;57.818;15.224;2024-02-23T06:15:16;1.67;;;1.10;;
16159;SDS011;8185;57.818;15.224;2024-02-23T06:17:43;1.77;;;1.00;;
16159;SDS011;8185;57.818;15.224;2024-02-23T06:20:11;1.60;;;0.80;;
16159;SDS011;8185;57.818;15.224;2024-02-23T06:22:39;0.70;;;0.70;;
16159;SDS011;8185;57.818;15.224;2024-02-23T06:25:06;0.73;;;0.70;;
16159;SDS011;8185;57.818;15.224;2024-02-23T06:27:34;1.13;;;0.80;;
16159;SDS011;8185;57.818;15.224;2024-02-23T06:30:03;1.90;;;0.77;;
16159;SDS011;8185;57.818;15.224;2024-02-23T06:32:32;1.05;;;0.60;;
16159;SDS011;8185;57.818;15.224;2024-02-23T06:35:00;1.33;;;0.50;;
16159;SDS011;8185;57.818;15.224;2024-02-23T06:37:28;2.40;;;1.90;;
16159;SDS011;8185;57.818;15.224;2024-02-23T06:39:55;0.97;;;0.83;;
16159;SDS011;8185;57.818;15.224;2024-02-23T06:54:39;1.93;;;0.67;;
16159;SDS011;8185;57.818;15.224;2024-02-23T06:57:06;1.00;;;0.70;;
16159;SDS011;8185;57.818;15.224;2024-02-23T06:59:34;1.93;;;0.40;;
16159;SDS011;8185;57.818;15.224;2024-02-23T07:02:01;0.83;;;0.60;;
16159;SDS011;8185;57.818;15.224;2024-02-23T07:04:29;1.70;;;0.50;;
16159;SDS011;8185;57.818;15.224;2024-02-23T07:06:59;1.00;;;0.40;;
16159;SDS011;8185;57.818;15.224;2024-02-23T07:09:31;1.52;;;0.43;;
16159;SDS011;8185;57.818;15.224;2024-02-23T07:11:59;1.13;;;0.63;;
16159;SDS011;8185;57.818;15.224;2024-02-23T07:14:26;1.73;;;0.50;;
16159;SDS011;8185;57.818;15.224;2024-02-23T07:16:54;2.42;;;0.70;;
16159;SDS011;8185;57.818;15.224;2024-02-23T07:19:21;1.17;;;0.32;;
16159;SDS011;8185;57.818;15.224;2024-02-23T07:21:48;1.63;;;0.60;;
16159;SDS011;8185;57.818;15.224;2024-02-23T07:24:17;1.20;;;0.40;;
16159;SDS011;8185;57.818;15.224;2024-02-23T07:29:12;1.45;;;0.40;;
16159;SDS011;8185;57.818;15.224;2024-02-23T07:31:39;0.50;;;0.30;;
16159;SDS011;8185;57.818;15.224;2024-02-23T07:34:06;0.47;;;0.37;;
16159;SDS011;8185;57.818;15.224;2024-02-23T07:36:34;1.40;;;0.63;;
16159;SDS011;8185;57.818;15.224;2024-02-23T07:39:01;1.10;;;0.63;;
16159;SDS011;8185;57.818;15.224;2024-02-23T07:41:32;1.07;;;0.50;;
16159;SDS011;8185;57.818;15.224;2024-02-23T07:43:59;1.57;;;0.87;;
16159;SDS011;8185;57.818;15.224;2024-02-23T07:46:27;2.00;;;0.50;;
16159;SDS011;8185;57.818;15.224;2024-02-23T07:48:54;1.05;;;0.50;;
16159;SDS011;8185;57.818;15.224;2024-02-23T07:51:22;1.90;;;0.45;;
16159;SDS011;8185;57.818;15.224;2024-02-23T07:53:49;1.33;;;0.70;;
16159;SDS011;8185;57.818;15.224;2024-02-23T07:56:16;2.13;;;0.70;;
16159;SDS011;8185;57.818;15.224;2024-02-23T07:58:45;2.27;;;0.77;;
16159;SDS011;8185;57.818;15.224;2024-02-23T08:01:12;1.30;;;0.40;;
16159;SDS011;8185;57.818;15.224;2024-02-23T08:03:41;2.70;;;0.50;;
16159;SDS011;8185;57.818;15.224;2024-02-23T08:06:08;2.37;;;0.70;;
16159;SDS011;8185;57.818;15.224;2024-02-23T08:08:35;4.87;;;0.80;;
16159;SDS011;8185;57.818;15.224;2024-02-23T08:11:03;2.57;;;1.03;;
16159;SDS011;8185;57.818;15.224;2024-02-23T08:13:30;2.17;;;0.80;;
16159;SDS011;8185;57.818;15.224;2024-02-23T08:15:59;1.57;;;0.70;;
16159;SDS011;8185;57.818;15.224;2024-02-23T08:18:27;1.17;;;0.73;;
16159;SDS011;8185;57.818;15.224;2024-02-23T08:20:55;2.63;;;0.90;;
16159;SDS011;8185;57.818;15.224;2024-02-23T08:23:23;3.00;;;0.90;;
16159;SDS011;8185;57.818;15.224;2024-02-23T08:25:50;1.27;;;0.50;;
16159;SDS011;8185;57.818;15.224;2024-02-23T08:28:19;3.53;;;1.00;;
16159;SDS011;8185;57.818;15.224;2024-02-23T08:30:46;2.90;;;0.80;;
16159;SDS011;8185;57.818;15.224;2024-02-23T08:33:15;2.30;;;0.90;;
16159;SDS011;8185;57.818;15.224;2024-02-23T08:35:43;4.23;;;0.90;;
16159;SDS011;8185;57.818;15.224;2024-02-23T08:38:10;3.70;;;0.97;;
16159;SDS011;8185;57.818;15.224;2024-02-23T08:40:37;3.80;;;1.20;;
16159;SDS011;8185;57.818;15.224;2024-02-23T08:43:05;5.33;;;0.90;;
16159;SDS011;8185;57.818;15.224;2024-02-23T08:47:59;3.00;;;1.00;;
16159;SDS011;8185;57.818;15.224;2024-02-23T08:50:28;6.70;;;1.60;;
16159;SDS011;8185;57.818;15.224;2024-02-23T08:52:55;3.30;;;0.90;;
16159;SDS011;8185;57.818;15.224;2024-02-23T08:55:23;5.75;;;1.00;;
16159;SDS011;8185;57.818;15.224;2024-02-23T08:57:51;1.87;;;0.80;;
16159;SDS011;8185;57.818;15.224;2024-02-23T09:00:18;4.25;;;0.70;;
16159;SDS011;8185;57.818;15.224;2024-02-23T09:02:46;4.90;;;1.13;;
16159;SDS011;8185;57.818;15.224;2024-02-23T09:05:15;5.47;;;1.50;;
16159;SDS011;8185;57.818;15.224;2024-02-23T09:07:44;5.20;;;1.40;;
16159;SDS011;8185;57.818;15.224;2024-02-23T09:10:11;5.50;;;1.13;;
16159;SDS011;8185;57.818;15.224;2024-02-23T09:12:39;3.87;;;1.30;;
16159;SDS011;8185;57.818;15.224;2024-02-23T09:15:06;9.07;;;2.17;;
16159;SDS011;8185;57.818;15.224;2024-02-23T09:17:34;4.60;;;1.60;;
16159;SDS011;8185;57.818;15.224;2024-02-23T09:20:01;5.13;;;1.50;;
16159;SDS011;8185;57.818;15.224;2024-02-23T09:22:29;4.80;;;1.27;;
16159;SDS011;8185;57.818;15.224;2024-02-23T09:27:25;4.93;;;1.17;;
16159;SDS011;8185;57.818;15.224;2024-02-23T09:29:52;2.70;;;1.13;;
16159;SDS011;8185;57.818;15.224;2024-02-23T09:32:20;3.83;;;1.20;;
16159;SDS011;8185;57.818;15.224;2024-02-23T09:34:47;3.67;;;0.87;;
16159;SDS011;8185;57.818;15.224;2024-02-23T09:37:14;3.77;;;0.70;;
16159;SDS011;8185;57.818;15.224;2024-02-23T09:39:41;3.77;;;1.40;;
16159;SDS011;8185;57.818;15.224;2024-02-23T09:42:10;7.57;;;2.03;;
16159;SDS011;8185;57.818;15.224;2024-02-23T09:44:38;6.13;;;1.80;;
16159;SDS011;8185;57.818;15.224;2024-02-23T09:47:08;5.73;;;1.27;;
16159;SDS011;8185;57.818;15.224;2024-02-23T09:49:37;8.63;;;2.00;;
16159;SDS011;8185;57.818;15.224;2024-02-23T09:52:07;6.33;;;1.50;;
16159;SDS011;8185;57.818;15.224;2024-02-23T09:54:36;4.60;;;1.43;;
16159;SDS011;8185;57.818;15.224;2024-02-23T09:57:06;7.43;;;1.60;;
16159;SDS011;8185;57.818;15.224;2024-02-23T09:59:36;8.53;;;2.13;;
16159;SDS011;8185;57.818;15.224;2024-02-23T10:02:03;4.83;;;1.37;;
16159;SDS011;8185;57.818;15.224;2024-02-23T10:04:35;5.90;;;1.30;;
16159;SDS011;8185;57.818;15.224;2024-02-23T10:09:31;6.27;;;1.80;;
16159;SDS011;8185;57.818;15.224;2024-02-23T10:11:58;6.57;;;1.57;;
16159;SDS011;8185;57.818;15.224;2024-02-23T10:29:16;8.35;;;1.65;;
16159;SDS011;8185;57.818;15.224;2024-02-23T10:31:44;6.77;;;1.30;;
16159;SDS011;8185;57.818;15.224;2024-02-23T10:36:45;3.15;;;0.82;;
16159;SDS011;8185;57.818;15.224;2024-02-23T10:39:16;6.47;;;1.20;;
16159;SDS011;8185;57.818;15.224;2024-02-23T10:41:46;2.83;;;0.93;;
16159;SDS011;8185;57.818;15.224;2024-02-23T10:44:19;4.30;;;1.43;;
16159;SDS011;8185;57.818;15.224;2024-02-23T10:46:47;4.57;;;1.40;;
16159;SDS011;8185;57.818;15.224;2024-02-23T10:49:18;6.23;;;1.67;;
16159;SDS011;8185;57.818;15.224;2024-02-23T10:51:49;4.10;;;1.47;;
16159;SDS011;8185;57.818;15.224;2024-02-23T10:54:19;3.47;;;1.20;;
16159;SDS011;8185;57.818;15.224;2024-02-23T10:56:47;3.50;;;0.77;;
16159;SDS011;8185;57.818;15.224;2024-02-23T11:04:11;4.47;;;1.40;;
16159;SDS011;8185;57.818;15.224;2024-02-23T11:06:40;3.85;;;1.13;;
16159;SDS011;8185;57.818;15.224;2024-02-23T11:09:11;4.53;;;0.80;;
16159;SDS011;8185;57.818;15.224;2024-02-23T11:11:39;5.78;;;1.55;;
16159;SDS011;8185;57.818;15.224;2024-02-23T11:16:44;4.93;;;1.40;;
16159;SDS011;8185;57.818;15.224;2024-02-23T11:19:18;5.70;;;1.23;;
16159;SDS011;8185;57.818;15.224;2024-02-23T11:21:51;2.77;;;0.93;;
16159;SDS011;8185;57.818;15.224;2024-02-23T11:24:19;4.23;;;1.80;;
16159;SDS011;8185;57.818;15.224;2024-02-23T11:26:47;5.47;;;1.60;;
16159;SDS011;8185;57.818;15.224;2024-02-23T11:29:15;5.30;;;3.80;;
16159;SDS011;8185;57.818;15.224;2024-02-23T11:31:44;4.27;;;1.40;;
16159;SDS011;8185;57.818;15.224;2024-02-23T11:34:13;4.00;;;1.40;;
16159;SDS011;8185;57.818;15.224;2024-02-23T11:36:51;4.07;;;1.40;;
16159;SDS011;8185;57.818;15.224;2024-02-23T11:39:19;9.03;;;1.60;;
16159;SDS011;8185;57.818;15.224;2024-02-23T11:41:47;9.57;;;4.20;;
16159;SDS011;8185;57.818;15.224;2024-02-23T11:44:15;4.73;;;1.20;;
16159;SDS011;8185;57.818;15.224;2024-02-23T11:46:43;4.87;;;1.47;;
16159;SDS011;8185;57.818;15.224;2024-02-23T11:49:11;3.53;;;1.57;;
16159;SDS011;8185;57.818;15.224;2024-02-23T11:51:39;5.20;;;1.63;;
16159;SDS011;8185;57.818;15.224;2024-02-23T11:54:08;3.83;;;1.40;;
16159;SDS011;8185;57.818;15.224;2024-02-23T11:56:36;4.40;;;1.20;;
16159;SDS011;8185;57.818;15.224;2024-02-23T11:59:03;5.10;;;1.83;;
16159;SDS011;8185;57.818;15.224;2024-02-23T12:01:31;2.10;;;1.00;;
16159;SDS011;8185;57.818;15.224;2024-02-23T12:03:58;4.17;;;1.23;;
16159;SDS011;8185;57.818;15.224;2024-02-23T12:06:26;3.80;;;1.13;;
16159;SDS011;8185;57.818;15.224;2024-02-23T12:08:58;4.53;;;1.13;;
16159;SDS011;8185;57.818;15.224;2024-02-23T12:11:27;5.53;;;1.20;;
16159;SDS011;8185;57.818;15.224;2024-02-23T12:13:55;6.27;;;1.70;;
16159;SDS011;8185;57.818;15.224;2024-02-23T12:16:22;6.20;;;1.23;;
16159;SDS011;8185;57.818;15.224;2024-02-23T12:18:52;4.77;;;1.50;;
16159;SDS011;8185;57.818;15.224;2024-02-23T12:21:21;6.93;;;1.50;;
16159;SDS011;8185;57.818;15.224;2024-02-23T12:23:50;3.83;;;1.17;;
16159;SDS011;8185;57.818;15.224;2024-02-23T12:26:18;5.93;;;1.90;;
16159;SDS011;8185;57.818;15.224;2024-02-23T12:28:47;4.43;;;1.20;;
16159;SDS011;8185;57.818;15.224;2024-02-23T12:31:15;5.27;;;1.63;;
16159;SDS011;8185;57.818;15.224;2024-02-23T12:33:42;3.93;;;1.40;;
16159;SDS011;8185;57.818;15.224;2024-02-23T12:36:13;7.20;;;2.07;;
16159;SDS011;8185;57.818;15.224;2024-02-23T12:38:42;4.10;;;1.63;;
16159;SDS011;8185;57.818;15.224;2024-02-23T12:41:09;4.80;;;1.13;;
16159;SDS011;8185;57.818;15.224;2024-02-23T12:43:37;2.83;;;1.10;;
16159;SDS011;8185;57.818;15.224;2024-02-23T12:46:06;5.97;;;1.33;;
16159;SDS011;8185;57.818;15.224;2024-02-23T12:48:34;3.13;;;1.10;;
16159;SDS011;8185;57.818;15.224;2024-02-23T12:51:01;3.00;;;1.30;;
16159;SDS011;8185;57.818;15.224;2024-02-23T12:53:32;4.03;;;1.20;;
16159;SDS011;8185;57.818;15.224;2024-02-23T12:56:02;6.57;;;1.73;;
16159;SDS011;8185;57.818;15.224;2024-02-23T12:58:30;4.30;;;1.40;;
16159;SDS011;8185;57.818;15.224;2024-02-23T13:00:58;6.43;;;1.43;;
16159;SDS011;8185;57.818;15.224;2024-02-23T13:03:27;6.17;;;1.63;;
16159;SDS011;8185;57.818;15.224;2024-02-23T13:05:54;10.97;;;3.87;;
16159;SDS011;8185;57.818;15.224;2024-02-23T13:08:23;5.53;;;1.90;;
16159;SDS011;8185;57.818;15.224;2024-02-23T13:10:51;4.73;;;1.30;;
16159;SDS011;8185;57.818;15.224;2024-02-23T13:13:19;4.30;;;1.40;;
16159;SDS011;8185;57.818;15.224;2024-02-23T13:15:46;4.27;;;1.23;;
16159;SDS011;8185;57.818;15.224;2024-02-23T13:18:15;9.23;;;4.27;;
16159;SDS011;8185;57.818;15.224;2024-02-23T13:20:44;6.20;;;2.37;;
16159;SDS011;8185;57.818;15.224;2024-02-23T13:23:11;4.07;;;1.80;;
16159;SDS011;8185;57.818;15.224;2024-02-23T13:25:40;6.00;;;1.97;;
16159;SDS011;8185;57.818;15.224;2024-02-23T13:28:09;6.73;;;4.17;;
16159;SDS011;8185;57.818;15.224;2024-02-23T13:30:36;11.23;;;6.47;;
16159;SDS011;8185;57.818;15.224;2024-02-23T13:33:04;4.67;;;1.83;;
16159;SDS011;8185;57.818;15.224;2024-02-23T13:35:33;5.03;;;1.70;;
16159;SDS011;8185;57.818;15.224;2024-02-23T13:38:02;5.33;;;1.40;;
16159;SDS011;8185;57.818;15.224;2024-02-23T13:40:30;5.43;;;2.90;;
16159;SDS011;8185;57.818;15.224;2024-02-23T13:42:57;4.67;;;1.30;;
16159;SDS011;8185;57.818;15.224;2024-02-23T13:45:24;5.03;;;2.00;;
16159;SDS011;8185;57.818;15.224;2024-02-23T13:47:55;4.73;;;1.93;;
16159;SDS011;8185;57.818;15.224;2024-02-23T13:50:24;5.60;;;1.53;;
16159;SDS011;8185;57.818;15.224;2024-02-23T13:52:51;4.77;;;2.00;;
16159;SDS011;8185;57.818;15.224;2024-02-23T13:55:20;4.30;;;1.30;;
16159;SDS011;8185;57.818;15.224;2024-02-23T13:57:48;6.10;;;1.30;;
16159;SDS011;8185;57.818;15.224;2024-02-23T14:00:15;5.77;;;1.40;;
16159;SDS011;8185;57.818;15.224;2024-02-23T14:02:44;6.70;;;2.77;;
16159;SDS011;8185;57.818;15.224;2024-02-23T14:05:11;5.13;;;1.70;;
16159;SDS011;8185;57.818;15.224;2024-02-23T14:07:40;5.43;;;1.40;;
16159;SDS011;8185;57.818;15.224;2024-02-23T14:10:08;4.23;;;1.50;;
16159;SDS011;8185;57.818;15.224;2024-02-23T14:12:37;7.93;;;2.70;;
16159;SDS011;8185;57.818;15.224;2024-02-23T14:15:04;4.00;;;1.20;;
16159;SDS011;8185;57.818;15.224;2024-02-23T14:17:32;3.60;;;1.23;;
16159;SDS011;8185;57.818;15.224;2024-02-23T14:20:00;7.97;;;1.63;;
16159;SDS011;8185;57.818;15.224;2024-02-23T14:22:27;3.70;;;1.37;;
16159;SDS011;8185;57.818;15.224;2024-02-23T14:24:55;4.07;;;2.13;;
16159;SDS011;8185;57.818;15.224;2024-02-23T14:27:23;5.57;;;1.10;;
16159;SDS011;8185;57.818;15.224;2024-02-23T14:29:54;4.40;;;1.27;;
16159;SDS011;8185;57.818;15.224;2024-02-23T14:32:21;4.50;;;1.57;;
16159;SDS011;8185;57.818;15.224;2024-02-23T14:34:49;2.87;;;0.90;;
16159;SDS011;8185;57.818;15.224;2024-02-23T14:37:17;2.23;;;0.97;;
16159;SDS011;8185;57.818;15.224;2024-02-23T14:39:45;6.43;;;1.23;;
16159;SDS011;8185;57.818;15.224;2024-02-23T14:42:12;2.97;;;1.03;;
16159;SDS011;8185;57.818;15.224;2024-02-23T14:44:39;3.57;;;1.40;;
16159;SDS011;8185;57.818;15.224;2024-02-23T14:47:08;3.37;;;1.10;;
16159;SDS011;8185;57.818;15.224;2024-02-23T14:49:36;3.33;;;1.20;;
16159;SDS011;8185;57.818;15.224;2024-02-23T14:52:03;5.43;;;1.50;;
16159;SDS011;8185;57.818;15.224;2024-02-23T14:54:31;4.67;;;1.47;;
16159;SDS011;8185;57.818;15.224;2024-02-23T14:56:59;5.80;;;3.73;;
16159;SDS011;8185;57.818;15.224;2024-02-23T14:59:26;3.83;;;1.60;;
16159;SDS011;8185;57.818;15.224;2024-02-23T15:01:54;3.87;;;1.37;;
16159;SDS011;8185;57.818;15.224;2024-02-23T15:04:23;5.77;;;1.67;;
16159;SDS011;8185;57.818;15.224;2024-02-23T15:06:50;2.80;;;1.20;;
16159;SDS011;8185;57.818;15.224;2024-02-23T15:09:17;4.97;;;1.50;;
16159;SDS011;8185;57.818;15.224;2024-02-23T15:11:45;4.17;;;1.47;;
16159;SDS011;8185;57.818;15.224;2024-02-23T15:14:12;4.97;;;1.73;;
16159;SDS011;8185;57.818;15.224;2024-02-23T15:16:40;4.97;;;1.47;;
16159;SDS011;8185;57.818;15.224;2024-02-23T15:19:08;4.53;;;1.77;;
16159;SDS011;8185;57.818;15.224;2024-02-23T15:21:37;4.40;;;1.60;;
16159;SDS011;8185;57.818;15.224;2024-02-23T15:24:06;4.03;;;1.13;;
16159;SDS011;8185;57.818;15.224;2024-02-23T15:26:33;6.00;;;1.40;;
16159;SDS011;8185;57.818;15.224;2024-02-23T15:29:01;5.23;;;1.20;;
16159;SDS011;8185;57.818;15.224;2024-02-23T15:31:29;3.30;;;1.30;;
16159;SDS011;8185;57.818;15.224;2024-02-23T15:33:57;3.37;;;1.37;;
16159;SDS011;8185;57.818;15.224;2024-02-23T15:36:25;4.33;;;1.47;;